Neligh, NE

9:59 AM CDT on September 17, 2014 (GMT -0500)
Deloit 12 south 2 west of Ewing | Change Station
CLOSE
Current Station
Personal Weather Station
Location: Ewing, NE
Elevation: 1965 ft
Nearby Weather Stations

Elev 1965 ft 42.09 °N, 98.38 °W | Updated 8 seconds ago

Clear
Clear
63.2 °F
Feels Like 63.2 °F
N
2.0
Wind Variable Wind from SW
Gusts 4.0 mph

Today
High -- | Low -- °F
--% Chance of Precip.
Yesterday
High -- | Low -- °F
Precip. -- in
7:14 AM 7:38 PM
Waning Crescent, 35% visible
Pressure 29.94 in
Visibility 10.0 miles
Clouds Clear
Dew Point 60 °F
Humidity 88%
Rainfall 0.00 in
Snow Depth Not available.
UV 2.1 out of 12
Pollen 5.60 out of 12
Air Quality Not available.
Flu Activity Not available.
METAR KBVN 171435Z AUTO 00000KT 10SM CLR 14/11 A2994 RMK AO2 T01370106

More Conditions Fewer Conditions

Pressure 29.94 in
Visibility 10.0 miles
Clouds Clear
Dew Point 60 °F
Humidity 88%
Rainfall 0.00 in
Snow Depth Not available.
UV 2.1 out of 12
Pollen 5.60 out of 12
Air Quality Not available.
Flu Activity Not available.
METAR KBVN 171435Z AUTO 00000KT 10SM CLR 14/11 A2994 RMK AO2 T01370106

More Conditions Fewer Conditions

10-Day Weather Forecast

Almanac

Astronomy

Sep. 17, 2014 Rise Set
Actual Time 7:14 AM CDT 7:38 PM CDT
Civil Twilight 6:46 AM CDT 8:06 PM CDT
Nautical Twilight 6:13 AM CDT 8:39 PM CDT
Astronomical Twilight 5:39 AM CDT 9:12 PM CDT
Moon 1:10 AM CDT 3:53 PM CDT
Length of Visible Light 13h 19m
Length of Day
12h 23m
Tomorrow will be 2m 49s shorter.
Waning Crescent, 35% of the Moon is Illuminated
Today
Waning Crescent
Sep 24
New
Oct 1
First Quarter
Oct 8
Full
Oct 15
Last Quarter

Today's Extremes

State Highs State Lows

Community

WunderPhotos

Upload Photos

1,754,060 photos uploaded!

WunderBlogs® & News

By Dr. Jeff Masters
Director of Meteorology, Weather Underground
By Kari Strenfel
Meteorologist, Weather Underground
By Christopher C. Burt
Weather Historian, Weather Underground
September 17, 2014
September 17, 2014
September 17, 2014

Nearby

Snow Depth

Station Depth Elevation
No new snow has been reported.

Earthquake Activity

City Distance Mag. Time & Date
No recent earthquake activity has been reported nearby.
Minimum magnitude displayed is 2.5.

Coastal Water Temperatures

Place Temperature
No Stations Reporting

Nearby Weather Stations